Time;durP1;ratioP1;P1;durP2;ratioP2;P2;SDS_P1;SDS_P2;PMS_P1;PMS_P2;Temp;Humidity;BMP_temperature;BMP_pressure;BME280_temperature;BME280_humidity;BME280_pressure;Samples;Min_cycle;Max_cycle;Signal;HPM_P1;HPM_P2
2020/12/14 00:00:27;;;;;;;30.50;10.43;;;;;;;4.33;100.00;100541.25;1799344;79;21086;-55
2020/12/14 00:02:59;;;;;;;24.57;10.28;;;;;;;4.34;100.00;100552.77;1799343;79;21020;-55
2020/12/14 00:05:27;;;;;;;29.98;10.78;;;;;;;4.36;100.00;100545.66;1784703;79;21559;-55
2020/12/14 00:07:54;;;;;;;31.55;10.93;;;;;;;4.36;100.00;100549.17;1799345;79;22746;-56
2020/12/14 00:10:23;;;;;;;33.50;11.20;;;;;;;4.38;100.00;100563.77;1799310;79;21195;-54
2020/12/14 00:12:50;;;;;;;31.02;11.18;;;;;;;4.36;100.00;100557.59;1799366;79;21063;-55
2020/12/14 00:15:18;;;;;;;31.62;10.63;;;;;;;4.34;100.00;100558.93;1799393;79;20996;-54
2020/12/14 00:17:45;;;;;;;30.02;10.80;;;;;;;4.33;100.00;100554.52;1806333;79;20974;-54
2020/12/14 00:20:13;;;;;;;29.82;10.80;;;;;;;4.33;100.00;100547.88;1807268;78;21375;-54
2020/12/14 00:22:41;;;;;;;31.80;11.30;;;;;;;4.34;100.00;100552.30;1807163;79;20930;-55
2020/12/14 00:25:08;;;;;;;33.63;10.32;;;;;;;4.36;100.00;100546.52;1807352;79;20946;-55
2020/12/14 00:27:36;;;;;;;31.52;10.15;;;;;;;4.35;100.00;100549.20;1807200;79;21139;-55
2020/12/14 00:30:04;;;;;;;24.55;10.68;;;;;;;4.34;100.00;100558.07;1807291;78;21155;-55
2020/12/14 00:32:31;;;;;;;34.45;11.55;;;;;;;4.29;100.00;100558.98;1807375;79;21321;-54
2020/12/14 00:34:59;;;;;;;33.65;11.40;;;;;;;4.30;100.00;100561.20;1807290;79;20921;-55
2020/12/14 00:37:27;;;;;;;29.25;11.08;;;;;;;4.29;100.00;100558.11;1818564;78;20905;-54
2020/12/14 00:39:55;;;;;;;32.35;12.18;;;;;;;4.28;100.00;100569.16;1824270;78;21302;-55
2020/12/14 00:42:22;;;;;;;32.13;11.60;;;;;;;4.28;100.00;100561.20;1824330;77;21173;-55
2020/12/14 00:44:49;;;;;;;26.30;11.35;;;;;;;4.27;100.00;100565.22;1824291;78;21604;-55
2020/12/14 00:47:17;;;;;;;37.20;12.10;;;;;;;4.27;100.00;100566.08;1824173;78;21174;-55
2020/12/14 00:49:45;;;;;;;27.55;10.82;;;;;;;4.29;100.00;100557.66;1824137;78;21118;-55
2020/12/14 00:52:12;;;;;;;31.17;12.25;;;;;;;4.28;100.00;100547.93;1824229;77;21110;-55
2020/12/14 00:54:42;;;;;;;23.98;11.12;;;;;;;4.27;100.00;100552.81;1824163;78;20996;-55
2020/12/14 00:57:09;;;;;;;31.87;11.75;;;;;;;4.28;100.00;100561.66;1824208;78;21197;-55
2020/12/14 00:59:37;;;;;;;31.80;11.22;;;;;;;4.28;100.00;100549.26;1824130;78;21110;-55
2020/12/14 01:02:04;;;;;;;35.17;11.78;;;;;;;4.29;100.00;100560.77;1824195;78;20984;-55
2020/12/14 01:04:32;;;;;;;28.52;10.58;;;;;;;4.29;100.00;100561.63;1824157;78;20913;-55
2020/12/14 01:06:59;;;;;;;39.33;12.28;;;;;;;4.30;100.00;100578.45;1824192;78;21039;-56
2020/12/14 01:09:27;;;;;;;31.87;11.05;;;;;;;4.28;100.00;100546.61;1824252;78;21386;-59
2020/12/14 01:11:55;;;;;;;36.05;11.95;;;;;;;4.27;100.00;100555.47;1824051;78;20983;-55
2020/12/14 01:14:22;;;;;;;27.10;10.98;;;;;;;4.28;100.00;100543.09;1824234;78;20885;-55
2020/12/14 01:16:50;;;;;;;34.58;12.43;;;;;;;4.27;100.00;100544.85;1823950;77;21063;-55
2020/12/14 01:19:17;;;;;;;32.55;12.53;;;;;;;4.27;100.00;100547.50;1824280;78;21043;-55
2020/12/14 01:21:45;;;;;;;30.45;11.70;;;;;;;4.25;100.00;100554.61;1824158;78;21352;-55
2020/12/14 01:24:13;;;;;;;34.75;12.45;;;;;;;4.28;100.00;100543.95;1824145;78;21132;-55
2020/12/14 01:26:40;;;;;;;33.13;12.15;;;;;;;4.29;100.00;100554.99;1824054;78;20916;-55
2020/12/14 01:29:08;;;;;;;36.85;12.90;;;;;;;4.30;100.00;100551.91;1824169;78;21028;-55
2020/12/14 01:31:35;;;;;;;34.18;13.20;;;;;;;4.30;100.00;100555.42;1824112;78;21103;-55
2020/12/14 01:34:03;;;;;;;34.30;13.32;;;;;;;4.30;100.00;100562.52;1824151;78;21361;-55
2020/12/14 01:36:30;;;;;;;36.35;12.70;;;;;;;4.29;100.00;100550.16;1824071;77;21062;-55
2020/12/14 01:38:58;;;;;;;36.33;13.80;;;;;;;4.27;100.00;100567.41;1824187;78;21031;-55
2020/12/14 01:41:26;;;;;;;42.30;14.53;;;;;;;4.29;100.00;100557.66;1824142;78;21098;-55
2020/12/14 01:43:53;;;;;;;40.12;12.90;;;;;;;4.30;100.00;100564.72;1824156;78;21166;-55
2020/12/14 01:46:29;;;;;;;43.60;14.18;;;;;;;4.33;100.00;100569.58;1824184;77;22057;-55
2020/12/14 01:49:00;;;;;;;32.98;12.88;;;;;;;4.29;100.00;100562.09;1824138;78;21534;-55
2020/12/14 01:51:29;;;;;;;39.13;13.38;;;;;;;4.28;100.00;100563.00;1824279;78;21086;-54
2020/12/14 01:53:59;;;;;;;35.40;13.58;;;;;;;4.26;100.00;100570.96;1824076;78;21134;-55
2020/12/14 01:56:27;;;;;;;38.73;13.62;;;;;;;4.23;100.00;100574.98;1824153;77;21467;-56
2020/12/14 01:58:55;;;;;;;47.03;14.87;;;;;;;4.22;100.00;100590.48;1824128;78;21348;-55
2020/12/14 02:01:23;;;;;;;42.70;13.43;;;;;;;4.20;100.00;100582.98;1824088;78;21118;-55
2020/12/14 02:03:50;;;;;;;35.08;14.50;;;;;;;4.19;100.00;100581.23;1824342;78;21035;-55
2020/12/14 02:06:18;;;;;;;38.33;14.18;;;;;;;4.20;100.00;100589.63;1824288;78;21038;-55
2020/12/14 02:08:45;;;;;;;40.75;14.23;;;;;;;4.17;100.00;100580.37;1824320;78;21123;-55
2020/12/14 02:11:13;;;;;;;43.48;14.65;;;;;;;4.16;100.00;100595.40;1824243;78;21356;-55
2020/12/14 02:13:41;;;;;;;38.75;14.53;;;;;;;4.15;100.00;100587.47;1824337;78;21491;-55
2020/12/14 02:16:08;;;;;;;41.83;14.20;;;;;;;4.16;100.00;100592.74;1824192;78;20928;-55
2020/12/14 02:18:36;;;;;;;46.35;14.55;;;;;;;4.19;100.00;100598.48;1824382;78;21090;-55
2020/12/14 02:21:03;;;;;;;43.70;15.28;;;;;;;4.22;100.00;100593.59;1824352;78;21130;-54
2020/12/14 02:23:31;;;;;;;45.08;14.63;;;;;;;4.23;100.00;100602.84;1824348;78;21432;-55
2020/12/14 02:25:58;;;;;;;38.38;13.95;;;;;;;4.25;100.00;100602.38;1824286;77;22045;-55
2020/12/14 02:28:25;;;;;;;42.95;15.20;;;;;;;4.26;100.00;100618.73;1824391;78;21154;-55
2020/12/14 02:30:53;;;;;;;40.45;13.70;;;;;;;4.25;100.00;100613.00;1824283;78;21146;-55
2020/12/14 02:33:20;;;;;;;43.28;14.98;;;;;;;4.24;100.00;100604.61;1824299;78;21134;-55
2020/12/14 02:35:48;;;;;;;40.00;14.25;;;;;;;4.27;100.00;100615.19;1824240;78;21379;-54
2020/12/14 02:38:16;;;;;;;38.58;14.35;;;;;;;4.27;100.00;100611.20;1807239;79;21107;-54
2020/12/14 02:40:44;;;;;;;37.48;14.53;;;;;;;4.27;100.00;100609.87;1807348;79;21029;-54
2020/12/14 02:43:11;;;;;;;38.45;14.07;;;;;;;4.28;100.00;100618.27;1807348;79;21100;-54
2020/12/14 02:45:39;;;;;;;41.68;14.03;;;;;;;4.26;100.00;100612.09;1807373;79;21136;-55
2020/12/14 02:48:06;;;;;;;39.63;14.50;;;;;;;4.26;100.00;100631.14;1807300;79;21545;-55
2020/12/14 02:50:35;;;;;;;42.70;16.37;;;;;;;4.25;100.00;100618.30;1807359;79;21108;-55
2020/12/14 02:53:03;;;;;;;42.10;14.23;;;;;;;4.25;100.00;100627.59;1807288;79;21136;-55
2020/12/14 02:55:34;;;;;;;45.40;14.53;;;;;;;4.23;100.00;100617.45;1807365;79;21060;-55
2020/12/14 02:58:01;;;;;;;36.15;13.05;;;;;;;4.23;100.00;100625.41;1807309;79;21052;-54
2020/12/14 03:00:29;;;;;;;36.03;13.22;;;;;;;4.21;100.00;100615.72;1807362;78;21362;-54
2020/12/14 03:02:56;;;;;;;41.23;14.43;;;;;;;4.19;100.00;100621.47;1807257;79;21112;-54
2020/12/14 03:05:24;;;;;;;41.30;15.15;;;;;;;4.16;100.00;100617.95;1807268;79;21178;-55
2020/12/14 03:07:51;;;;;;;40.12;14.73;;;;;;;4.17;100.00;100617.52;1807320;79;21053;-54
2020/12/14 03:10:20;;;;;;;38.80;14.80;;;;;;;4.19;100.00;100634.30;1807354;79;21052;-54
2020/12/14 03:12:48;;;;;;;43.20;15.40;;;;;;;4.20;100.00;100630.75;1807337;79;22029;-54
2020/12/14 03:15:16;;;;;;;41.85;15.23;;;;;;;4.20;100.00;100629.86;1807191;79;21100;-54
2020/12/14 03:17:43;;;;;;;36.25;13.30;;;;;;;4.20;100.00;100633.84;1807235;78;21187;-54
2020/12/14 03:20:11;;;;;;;44.03;15.78;;;;;;;4.20;100.00;100632.08;1807263;78;21044;-54
2020/12/14 03:22:38;;;;;;;38.95;14.40;;;;;;;4.19;100.00;100633.41;1807399;79;21041;-54
2020/12/14 03:25:06;;;;;;;45.28;15.63;;;;;;;4.19;100.00;100651.98;1807272;79;21356;-54
2020/12/14 03:27:33;;;;;;;53.95;17.70;;;;;;;4.16;100.00;100631.69;1807443;79;21725;-54
2020/12/14 03:30:01;;;;;;;40.67;15.38;;;;;;;4.16;100.00;100636.53;1807338;79;21009;-54
2020/12/14 03:32:28;;;;;;;41.60;14.58;;;;;;;4.15;100.00;100652.02;1807363;79;21792;-54
2020/12/14 03:34:57;;;;;;;39.55;16.10;;;;;;;4.13;100.00;100650.30;1807354;78;21116;-54
2020/12/14 03:37:27;;;;;;;41.18;14.53;;;;;;;4.10;100.00;100645.02;1818264;78;21154;-54
2020/12/14 03:39:55;;;;;;;39.70;14.75;;;;;;;4.08;100.00;100638.83;1824207;78;21134;-54
2020/12/14 03:42:22;;;;;;;43.60;15.68;;;;;;;4.04;100.00;100634.45;1824146;78;21062;-55
2020/12/14 03:44:50;;;;;;;40.23;14.78;;;;;;;4.03;100.00;100639.33;1824237;78;21043;-55
2020/12/14 03:47:18;;;;;;;50.52;16.62;;;;;;;4.00;100.00;100637.13;1824270;78;21063;-55
2020/12/14 03:49:46;;;;;;;41.33;16.95;;;;;;;3.96;100.00;100637.17;1824238;78;21604;-54
2020/12/14 03:52:13;;;;;;;43.13;16.65;;;;;;;3.95;100.00;100646.92;1824170;77;21134;-54
2020/12/14 03:54:41;;;;;;;47.88;17.30;;;;;;;3.94;100.00;100646.48;1824214;78;21051;-54
2020/12/14 03:57:08;;;;;;;45.80;17.62;;;;;;;3.93;100.00;100652.69;1824104;78;21051;-55
2020/12/14 03:59:36;;;;;;;42.95;15.10;;;;;;;3.88;100.00;100634.61;1824259;78;21102;-55
2020/12/14 04:02:03;;;;;;;46.08;15.03;;;;;;;3.86;100.00;100645.23;1777949;78;21370;-54
2020/12/14 04:04:31;;;;;;;42.15;15.50;;;;;;;3.85;100.00;100646.13;1824141;78;21063;-55
2020/12/14 04:06:58;;;;;;;50.33;15.85;;;;;;;3.80;100.00;100647.05;1824256;78;21094;-54
2020/12/14 04:09:26;;;;;;;46.55;16.37;;;;;;;3.78;100.00;100648.83;1824114;78;21141;-54
2020/12/14 04:11:53;;;;;;;52.83;16.87;;;;;;;3.73;100.00;100664.77;1824264;78;21174;-54
2020/12/14 04:14:22;;;;;;;46.02;16.97;;;;;;;3.71;100.00;100646.25;1824194;78;21539;-55
2020/12/14 04:16:51;;;;;;;48.85;17.25;;;;;;;3.71;100.00;100655.53;1824022;78;21058;-55
2020/12/14 04:19:22;;;;;;;51.75;17.02;;;;;;;3.71;100.00;100643.59;1824270;78;21479;-54
2020/12/14 04:21:52;;;;;;;47.23;16.30;;;;;;;3.72;100.00;100644.45;1824279;78;21177;-54
2020/12/14 04:24:20;;;;;;;48.70;17.05;;;;;;;3.72;100.00;100642.70;1824134;78;21130;-54
2020/12/14 04:26:53;;;;;;;51.18;17.70;;;;;;;3.75;100.00;100639.58;1824214;78;21370;-55
2020/12/14 04:29:21;;;;;;;42.73;16.85;;;;;;;3.77;100.00;100637.80;1824109;78;21078;-54
2020/12/14 04:31:52;;;;;;;46.98;15.98;;;;;;;3.81;100.00;100642.17;1824132;78;21079;-55
2020/12/14 04:34:20;;;;;;;50.20;16.73;;;;;;;3.79;100.00;100647.94;1824241;78;21051;-54
2020/12/14 04:36:48;;;;;;;41.90;16.20;;;;;;;3.78;100.00;100656.80;1830448;78;21040;-54
2020/12/14 04:39:17;;;;;;;47.10;17.25;;;;;;;3.78;100.00;100659.45;1840385;78;22222;-54
2020/12/14 04:41:44;;;;;;;52.62;17.15;;;;;;;3.77;100.00;100649.73;1840249;78;21583;-54
2020/12/14 04:44:12;;;;;;;52.05;18.05;;;;;;;3.77;100.00;100668.30;1840399;78;21057;-54
2020/12/14 04:46:42;;;;;;;48.80;17.07;;;;;;;3.75;100.00;100670.08;1840291;78;21199;-54
2020/12/14 04:49:10;;;;;;;46.85;16.10;;;;;;;3.72;100.00;100675.84;1840273;78;21521;-54
2020/12/14 04:51:38;;;;;;;53.35;17.67;;;;;;;3.72;100.00;100671.87;1840193;77;21355;-54
2020/12/14 04:54:06;;;;;;;48.73;15.48;;;;;;;3.72;100.00;100679.83;1840148;78;21067;-55
2020/12/14 04:56:41;;;;;;;46.77;17.17;;;;;;;3.71;100.00;100683.37;1840247;78;21116;-54
2020/12/14 04:59:08;;;;;;;;;;;;;;;3.68;100.00;100679.42;1843005;78;21480;-55
2020/12/14 05:01:36;;;;;;;52.13;17.45;;;;;;;3.68;100.00;100697.09;1840312;78;20230;-55
2020/12/14 05:04:03;;;;;;;49.67;17.48;;;;;;;3.66;100.00;100693.14;1840166;78;21352;-54
2020/12/14 05:06:50;;;;;;;46.70;16.32;;;;;;;3.68;100.00;100690.45;1840175;78;20957;-54
2020/12/14 05:09:21;;;;;;;46.08;16.07;;;;;;;3.69;100.00;100698.41;1840237;78;21446;-54
2020/12/14 05:11:48;;;;;;;46.80;16.65;;;;;;;3.65;100.00;100705.96;1840219;78;21044;-54
2020/12/14 05:14:23;;;;;;;52.40;16.67;;;;;;;3.61;100.00;100692.27;1840264;78;21104;-55
2020/12/14 05:16:51;;;;;;;45.15;16.07;;;;;;;3.59;100.00;100723.22;1840355;78;21471;-54
2020/12/14 05:19:25;;;;;;;53.23;18.07;;;;;;;3.58;100.00;100708.20;1839981;77;21072;-55
2020/12/14 05:21:59;;;;;;;56.88;17.82;;;;;;;3.57;100.00;100721.92;1840218;78;21063;-56
2020/12/14 05:24:31;;;;;;;54.20;16.60;;;;;;;3.58;100.00;100714.40;1840576;78;21103;-54
2020/12/14 05:27:00;;;;;;;51.18;16.85;;;;;;;3.59;100.00;100721.89;1840143;78;21751;-54
2020/12/14 05:29:29;;;;;;;54.63;17.98;;;;;;;3.57;100.00;100723.24;1840343;78;22151;-55
2020/12/14 05:32:05;;;;;;;49.23;17.05;;;;;;;3.56;100.00;100728.55;1840190;78;21155;-54
2020/12/14 05:34:39;;;;;;;51.73;17.48;;;;;;;3.57;100.00;100728.55;1840278;78;21069;-54
2020/12/14 05:37:10;;;;;;;47.93;16.97;;;;;;;3.60;100.00;100724.98;1833325;77;21138;-55
2020/12/14 05:39:39;;;;;;;37.78;14.33;;;;;;;3.65;100.00;100724.95;1827451;78;21058;-54
2020/12/14 05:42:17;;;;;;;41.92;14.83;;;;;;;3.66;100.00;100732.91;1827511;78;22067;-54
2020/12/14 05:44:47;;;;;;;51.35;16.73;;;;;;;3.66;100.00;100743.95;1827446;78;21114;-55
2020/12/14 05:47:29;;;;;;;55.45;17.15;;;;;;;3.65;100.00;100742.19;1827536;78;21177;-54
2020/12/14 05:49:59;;;;;;;56.88;17.02;;;;;;;3.66;100.00;100739.54;1827429;78;21531;-54
2020/12/14 05:52:35;;;;;;;51.10;15.95;;;;;;;3.69;100.00;100751.87;1827677;78;21106;-54
2020/12/14 05:55:02;;;;;;;41.58;15.20;;;;;;;3.70;100.00;100746.58;1827553;78;21371;-55
2020/12/14 05:57:33;;;;;;;50.35;15.95;;;;;;;3.73;100.00;100754.51;1827375;78;20967;-54
2020/12/14 06:00:08;;;;;;;40.08;14.80;;;;;;;3.73;100.00;100746.55;1827446;78;20893;-55
2020/12/14 06:02:36;;;;;;;45.08;15.75;;;;;;;3.73;100.00;100735.95;1827475;78;21094;-55
2020/12/14 06:05:07;;;;;;;46.15;16.87;;;;;;;3.73;100.00;100730.64;1827665;78;21201;-55
2020/12/14 06:07:39;;;;;;;53.92;18.25;;;;;;;3.75;100.00;100739.03;1827407;78;21192;-55
2020/12/14 06:10:12;;;;;;;48.40;16.85;;;;;;;3.75;100.00;100746.98;1827464;78;21097;-56
2020/12/14 06:12:45;;;;;;;48.63;16.70;;;;;;;3.72;100.00;100755.40;1827496;78;21082;-57
2020/12/14 06:15:15;;;;;;;44.45;15.60;;;;;;;3.71;100.00;100739.06;1827532;78;21054;-55
2020/12/14 06:17:42;;;;;;;45.50;17.77;;;;;;;3.70;100.00;100741.27;1827347;78;21103;-54
2020/12/14 06:20:14;;;;;;;42.85;16.67;;;;;;;3.70;100.00;100747.91;1827528;78;21679;-55
2020/12/14 06:23:05;;;;;;;44.45;15.95;;;;;;;3.73;100.00;100751.86;1827404;78;21059;-58
2020/12/14 06:25:33;;;;;;;50.20;17.85;;;;;;;3.77;100.00;100751.41;1827583;78;21101;-55
2020/12/14 06:28:30;;;;;;;49.93;17.17;;;;;;;3.84;100.00;100773.00;1827542;78;21031;-54
2020/12/14 06:30:58;;;;;;;42.03;16.85;;;;;;;3.89;100.00;100780.94;1827565;77;21219;-54
2020/12/14 06:33:34;;;;;;;41.90;15.23;;;;;;;3.87;100.00;100797.31;1827597;78;21358;-54
2020/12/14 06:36:21;;;;;;;45.55;16.50;;;;;;;3.88;100.00;100804.38;1827471;78;20920;-54
2020/12/14 06:38:50;;;;;;;50.88;17.37;;;;;;;3.90;100.00;100797.28;1829190;78;21060;-55
2020/12/14 06:41:20;;;;;;;51.18;18.52;;;;;;;3.92;100.00;100800.81;1829140;78;21111;-54
2020/12/14 06:43:50;;;;;;;47.93;17.50;;;;;;;3.93;100.00;100791.95;1829163;78;21119;-55
2020/12/14 06:46:28;;;;;;;48.85;17.75;;;;;;;3.95;100.00;100792.83;1829347;78;22121;-55
2020/12/14 06:48:56;;;;;;;45.88;17.12;;;;;;;3.99;100.00;100806.96;1826798;77;21142;-55
2020/12/14 06:51:24;;;;;;;40.75;15.75;;;;;;;4.03;100.00;100802.49;1829138;78;21163;-57
2020/12/14 06:53:54;;;;;;;46.63;16.20;;;;;;;4.05;100.00;100804.69;1829201;78;21570;-56
2020/12/14 06:56:33;;;;;;;47.27;17.80;;;;;;;4.06;100.00;100807.77;1829300;78;21029;-55
2020/12/14 06:59:01;;;;;;;45.50;16.80;;;;;;;4.08;100.00;100801.58;1829266;78;21363;-55
2020/12/14 07:01:40;;;;;;;46.15;16.50;;;;;;;4.10;100.00;100798.92;1829212;78;21100;-55
2020/12/14 07:04:16;;;;;;;49.10;18.23;;;;;;;4.07;100.00;100794.94;1829234;78;21111;-54
2020/12/14 07:06:44;;;;;;;48.02;17.17;;;;;;;4.06;100.00;100798.48;1826670;78;21187;-54
2020/12/14 07:09:31;;;;;;;50.45;17.95;;;;;;;4.07;100.00;100804.23;1829319;78;20992;-54
2020/12/14 07:12:15;;;;;;;;;;;;;;;4.07;100.00;100793.19;1831323;78;21244;-54
2020/12/14 07:14:51;;;;;;;44.70;16.37;;;;;;;4.10;100.00;100802.91;1829249;78;20130;-54
2020/12/14 07:17:20;;;;;;;41.68;16.30;;;;;;;4.14;100.00;100808.62;1829195;78;21041;-55
2020/12/14 07:19:52;;;;;;;44.60;16.17;;;;;;;4.17;100.00;100816.55;1838422;77;21617;-55
2020/12/14 07:22:23;;;;;;;38.58;15.85;;;;;;;4.22;100.00;100824.03;1840377;78;21048;-55
2020/12/14 07:25:03;;;;;;;42.20;16.40;;;;;;;4.26;100.00;100823.56;1837899;78;21890;-55
2020/12/14 07:27:34;;;;;;;37.23;16.05;;;;;;;4.28;100.00;100829.74;1840284;78;21064;-55
2020/12/14 07:30:10;;;;;;;43.63;16.95;;;;;;;4.28;100.00;100833.26;1840364;78;20929;-55
2020/12/14 07:32:38;;;;;;;38.38;14.93;;;;;;;4.32;100.00;100843.42;1840322;78;21147;-55
2020/12/14 07:35:07;;;;;;;36.77;15.58;;;;;;;4.37;100.00;100848.23;1840357;78;21548;-55
2020/12/14 07:37:35;;;;;;;42.23;15.83;;;;;;;4.39;100.00;100840.28;1831013;78;21352;-56
2020/12/14 07:40:08;;;;;;;38.92;16.82;;;;;;;4.46;100.00;100841.12;1827302;78;21153;-55
2020/12/14 07:42:37;;;;;;;41.70;15.68;;;;;;;4.50;100.00;100851.67;1827386;77;21098;-56
2020/12/14 07:45:17;;;;;;;41.15;16.20;;;;;;;4.51;100.00;100848.13;1827383;78;21106;-56
2020/12/14 07:47:50;;;;;;;44.90;17.10;;;;;;;4.50;100.00;100861.43;1827356;78;21114;-55
2020/12/14 07:50:23;;;;;;;41.20;16.95;;;;;;;4.50;100.00;100856.12;1827432;77;21185;-56
2020/12/14 07:52:53;;;;;;;34.40;14.33;;;;;;;4.52;100.00;100871.13;1827324;78;21043;-57
2020/12/14 07:55:27;;;;;;;35.25;14.43;;;;;;;4.54;100.00;100868.47;1827434;78;21168;-55
2020/12/14 07:57:56;;;;;;;36.40;14.25;;;;;;;4.53;100.00;100858.75;1827369;78;21113;-55
2020/12/14 08:00:25;;;;;;;39.63;14.98;;;;;;;4.50;100.00;100873.38;1827395;77;21039;-56
2020/12/14 08:03:03;;;;;;;36.30;14.38;;;;;;;4.47;100.00;100882.70;1827362;78;21362;-55
2020/12/14 08:05:30;;;;;;;37.45;14.00;;;;;;;4.47;100.00;100869.42;1827345;78;21129;-56
2020/12/14 08:08:03;;;;;;;39.60;14.28;;;;;;;4.46;100.00;100873.84;1827439;78;21126;-55
2020/12/14 08:10:32;;;;;;;40.38;15.68;;;;;;;4.48;100.00;100868.53;1827340;78;21074;-54
2020/12/14 08:13:03;;;;;;;32.30;15.05;;;;;;;4.51;100.00;100878.66;1827395;77;21108;-55
2020/12/14 08:15:31;;;;;;;33.65;13.83;;;;;;;4.54;100.00;100872.02;1827325;78;21346;-56
2020/12/14 08:17:59;;;;;;;38.30;15.25;;;;;;;4.56;100.00;100874.65;1827307;78;21066;-55
2020/12/14 08:20:33;;;;;;;39.50;14.58;;;;;;;4.54;100.00;100881.32;1830396;77;21118;-56
2020/12/14 08:23:04;;;;;;;35.50;14.77;;;;;;;4.53;100.00;100886.20;1830938;78;21074;-54
2020/12/14 08:25:32;;;;;;;41.50;16.15;;;;;;;4.51;100.00;100893.27;1816878;78;21476;-54
2020/12/14 08:28:02;;;;;;;40.30;15.78;;;;;;;4.50;100.00;100888.84;1830569;77;21321;-55
2020/12/14 08:30:35;;;;;;;45.35;16.85;;;;;;;4.47;100.00;100888.88;1830538;78;21062;-55
2020/12/14 08:33:17;;;;;;;36.17;15.23;;;;;;;4.48;100.00;100887.98;1830204;77;21082;-55
2020/12/14 08:35:46;;;;;;;40.03;15.43;;;;;;;4.48;100.00;100874.70;1830691;78;21145;-55
2020/12/14 08:38:20;;;;;;;40.30;16.20;;;;;;;4.51;100.00;100877.80;1848791;77;21139;-55
2020/12/14 08:41:02;;;;;;;40.23;14.93;;;;;;;4.54;100.00;100888.39;1848868;77;21319;-55
2020/12/14 08:43:32;;;;;;;46.40;14.68;;;;;;;4.53;100.00;100887.95;1849136;77;20949;-55
2020/12/14 08:46:15;;;;;;;43.40;15.63;;;;;;;4.50;100.00;100876.03;1849160;77;21488;-56
2020/12/14 08:48:55;;;;;;;46.75;15.93;;;;;;;4.48;100.00;100873.38;1849133;77;20941;-55
2020/12/14 08:51:31;;;;;;;43.48;15.60;;;;;;;4.47;100.00;100871.62;1849012;77;21108;-54
2020/12/14 08:54:16;;;;;;;38.70;15.25;;;;;;;4.48;100.00;100885.33;1849168;77;21310;-55
2020/12/14 08:56:44;;;;;;;37.40;15.88;;;;;;;4.45;100.00;100882.70;1848887;77;21175;-53
2020/12/14 08:59:15;;;;;;;40.80;16.90;;;;;;;4.42;100.00;100873.00;1849001;77;21483;-55
2020/12/14 09:02:04;;;;;;;41.68;16.17;;;;;;;4.40;100.00;100887.17;1847938;77;21092;-54
2020/12/14 09:04:36;;;;;;;44.13;16.27;;;;;;;4.42;100.00;100878.75;1838957;77;21092;-54
2020/12/14 09:07:03;;;;;;;51.40;17.85;;;;;;;4.45;100.00;100882.70;1839680;77;21316;-56
2020/12/14 09:09:37;;;;;;;45.38;16.42;;;;;;;4.45;100.00;100891.99;1848905;77;21244;-54
2020/12/14 09:12:12;;;;;;;49.53;18.52;;;;;;;4.41;100.00;100894.23;1848126;77;21205;-55
2020/12/14 09:14:40;;;;;;;48.78;19.12;;;;;;;4.38;100.00;100886.30;1849083;77;20921;-55
2020/12/14 09:17:16;;;;;;;45.38;19.05;;;;;;;4.36;100.00;100888.95;1849058;77;21096;-55
2020/12/14 09:19:53;;;;;;;50.23;17.55;;;;;;;4.35;100.00;100877.90;1844504;77;21532;-55
2020/12/14 09:22:27;;;;;;;43.65;17.17;;;;;;;4.36;100.00;100892.07;1840212;78;21068;-56
2020/12/14 09:24:55;;;;;;;41.45;15.45;;;;;;;4.35;100.00;100875.71;1840473;78;21163;-56
2020/12/14 09:27:23;;;;;;;52.20;17.42;;;;;;;4.35;100.00;100871.73;1840285;78;21147;-56
2020/12/14 09:29:50;;;;;;;38.45;15.80;;;;;;;4.35;100.00;100874.38;1840312;78;21124;-56
2020/12/14 09:32:18;;;;;;;39.95;15.75;;;;;;;4.35;100.00;100877.03;1840163;77;21409;-55
2020/12/14 09:34:46;;;;;;;42.25;15.60;;;;;;;4.37;100.00;100868.61;1840203;77;21135;-56
2020/12/14 09:37:14;;;;;;;41.23;15.88;;;;;;;4.40;100.00;100868.59;1832735;78;21118;-56
2020/12/14 09:39:43;;;;;;;44.03;15.20;;;;;;;4.40;100.00;100869.91;1827349;78;21010;-56
2020/12/14 09:42:12;;;;;;;36.95;15.60;;;;;;;4.44;100.00;100872.97;1827334;78;21463;-55
2020/12/14 09:44:39;;;;;;;38.85;15.88;;;;;;;4.46;100.00;100872.52;1827297;78;21358;-55
2020/12/14 09:47:09;;;;;;;42.55;15.50;;;;;;;4.50;100.00;100863.63;1827325;78;21172;-56
2020/12/14 09:49:39;;;;;;;42.67;16.52;;;;;;;4.55;100.00;100863.59;1827380;78;20904;-56
2020/12/14 09:52:07;;;;;;;46.20;16.97;;;;;;;4.60;100.00;100863.11;1827294;78;21130;-55
2020/12/14 09:54:35;;;;;;;44.33;18.23;;;;;;;4.60;100.00;100857.79;1827309;78;21073;-57
2020/12/14 09:57:03;;;;;;;44.75;16.27;;;;;;;4.59;100.00;100863.56;1827450;78;22312;-55
2020/12/14 09:59:30;;;;;;;43.08;15.75;;;;;;;4.58;100.00;100859.15;1827224;78;21066;-56
2020/12/14 10:01:58;;;;;;;41.28;16.48;;;;;;;4.58;100.00;100853.84;1827372;78;20988;-55
2020/12/14 10:04:26;;;;;;;38.40;16.40;;;;;;;4.57;100.00;100856.06;1827250;78;21142;-56
2020/12/14 10:06:54;;;;;;;50.28;17.30;;;;;;;4.59;100.00;100856.03;1827486;78;21509;-55
2020/12/14 10:09:22;;;;;;;52.25;18.92;;;;;;;4.58;100.00;100857.83;1827437;78;21370;-56
2020/12/14 10:11:51;;;;;;;50.23;20.32;;;;;;;4.56;100.00;100848.98;1827275;77;21133;-55
2020/12/14 10:14:19;;;;;;;51.77;21.68;;;;;;;4.53;100.00;100853.00;1827319;78;21134;-56
2020/12/14 10:16:49;;;;;;;53.75;19.30;;;;;;;4.51;100.00;100856.09;1827033;78;21126;-56
2020/12/14 10:19:18;;;;;;;62.73;21.80;;;;;;;4.51;100.00;100852.57;1827745;78;21055;-57
2020/12/14 10:21:47;;;;;;;50.20;20.43;;;;;;;4.53;100.00;100855.66;1830475;78;21355;-56
2020/12/14 10:24:15;;;;;;;64.27;24.37;;;;;;;4.55;100.00;100860.94;1830615;78;21583;-56
2020/12/14 10:26:43;;;;;;;63.48;23.98;;;;;;;4.53;100.00;100856.98;1830658;78;21511;-55
2020/12/14 10:29:10;;;;;;;75.57;25.77;;;;;;;4.50;100.00;100861.43;1830686;78;21042;-56
2020/12/14 10:31:42;;;;;;;66.05;26.40;;;;;;;4.50;100.00;100874.24;1830713;78;21462;-56
2020/12/14 10:34:11;;;;;;;69.32;25.50;;;;;;;4.45;100.00;100861.45;1830707;77;21249;-56
2020/12/14 10:36:45;;;;;;;68.45;23.90;;;;;;;4.40;100.00;100852.66;1831436;78;21054;-55
2020/12/14 10:39:13;;;;;;;69.20;24.02;;;;;;;4.35;100.00;100842.53;1833447;77;21038;-56
2020/12/14 10:41:41;;;;;;;60.08;23.55;;;;;;;4.33;100.00;100838.55;1833339;78;21066;-56
2020/12/14 10:44:09;;;;;;;61.95;21.48;;;;;;;4.34;100.00;100842.09;1833258;78;21031;-56
2020/12/14 10:46:36;;;;;;;60.05;21.82;;;;;;;4.31;100.00;100832.37;1833273;78;21730;-55
2020/12/14 10:49:04;;;;;;;59.90;21.50;;;;;;;4.33;100.00;100828.39;1833174;78;21138;-56
2020/12/14 10:51:32;;;;;;;59.40;22.17;;;;;;;4.35;100.00;100827.92;1833347;78;21137;-55
2020/12/14 10:53:59;;;;;;;60.10;22.70;;;;;;;4.34;100.00;100844.75;1833186;78;21043;-56
2020/12/14 10:56:29;;;;;;;60.30;21.40;;;;;;;4.32;100.00;100842.55;1833425;78;21038;-55
2020/12/14 10:58:57;;;;;;;61.65;21.60;;;;;;;4.32;100.00;100849.19;1833196;77;22091;-56
2020/12/14 11:01:24;;;;;;;58.83;22.17;;;;;;;4.33;100.00;100846.51;1833232;78;21157;-54
2020/12/14 11:03:52;;;;;;;59.27;22.07;;;;;;;4.34;100.00;100848.27;1833225;78;21054;-56
2020/12/14 11:06:20;;;;;;;54.55;21.15;;;;;;;4.34;100.00;100844.75;1833254;78;21070;-55
2020/12/14 11:08:48;;;;;;;66.85;23.77;;;;;;;4.34;100.00;100854.04;1833290;78;21098;-55
2020/12/14 11:11:16;;;;;;;82.75;25.97;;;;;;;4.32;100.00;100838.58;1833315;77;21167;-56
2020/12/14 11:13:43;;;;;;;55.73;21.30;;;;;;;4.30;100.00;100835.45;1833224;78;21073;-55
2020/12/14 11:16:11;;;;;;;63.78;23.67;;;;;;;4.32;100.00;100868.64;1833234;77;21089;-56
2020/12/14 11:18:39;;;;;;;53.17;19.35;;;;;;;4.30;100.00;100855.36;1833244;78;21046;-56
2020/12/14 11:21:08;;;;;;;50.35;18.60;;;;;;;4.29;100.00;100862.89;1829102;77;21208;-56